createdAt,value
2018-09-16T00:02:27.731Z,5.57
2018-09-16T00:04:55.624Z,5.73
2018-09-16T00:07:23.583Z,5.90
2018-09-16T00:09:51.432Z,6.30
2018-09-16T00:12:19.130Z,5.37
2018-09-16T00:14:47.092Z,5.80
2018-09-16T00:17:14.852Z,5.90
2018-09-16T00:19:42.692Z,5.63
2018-09-16T00:22:10.470Z,5.93
2018-09-16T00:24:38.354Z,5.27
2018-09-16T00:27:06.085Z,5.80
2018-09-16T00:29:33.879Z,5.53
2018-09-16T00:32:06.823Z,6.03
2018-09-16T00:34:34.453Z,5.80
2018-09-16T00:37:02.281Z,6.53
2018-09-16T00:39:30.136Z,6.13
2018-09-16T00:41:57.926Z,6.97
2018-09-16T00:44:25.776Z,5.57
2018-09-16T00:46:53.667Z,6.37
2018-09-16T00:49:21.505Z,6.30
2018-09-16T00:51:49.426Z,7.20
2018-09-16T00:54:17.253Z,6.63
2018-09-16T00:56:45.172Z,7.00
2018-09-16T00:59:13.029Z,6.10
2018-09-16T01:01:40.763Z,6.40
2018-09-16T01:04:08.764Z,6.10
2018-09-16T01:06:37.165Z,6.70
2018-09-16T01:09:08.151Z,6.03
2018-09-16T01:11:36.058Z,6.30
2018-09-16T01:14:03.993Z,6.37
2018-09-16T01:16:31.861Z,6.63
2018-09-16T01:18:59.972Z,6.77
2018-09-16T01:21:27.775Z,6.07
2018-09-16T01:23:55.803Z,6.50
2018-09-16T01:26:23.612Z,7.00
2018-09-16T01:28:51.565Z,6.97
2018-09-16T01:31:19.405Z,6.90
2018-09-16T01:33:47.527Z,6.50
2018-09-16T01:36:15.416Z,6.73
2018-09-16T01:38:48.739Z,6.83
2018-09-16T01:41:16.589Z,6.30
2018-09-16T01:43:44.442Z,6.33
2018-09-16T01:46:12.324Z,7.40
2018-09-16T01:48:40.165Z,5.97
2018-09-16T01:51:08.047Z,6.50
2018-09-16T01:53:35.890Z,6.17
2018-09-16T01:56:03.677Z,6.50
2018-09-16T01:58:31.522Z,7.07
2018-09-16T02:00:59.291Z,6.90
2018-09-16T02:03:27.153Z,5.90
2018-09-16T02:05:55.324Z,6.97
2018-09-16T02:08:24.652Z,6.27
2018-09-16T02:10:52.495Z,6.83
2018-09-16T02:13:20.398Z,6.13
2018-09-16T02:15:48.291Z,7.13
2018-09-16T02:18:16.160Z,6.03
2018-09-16T02:20:44.374Z,6.30
2018-09-16T02:23:12.513Z,6.40
2018-09-16T02:25:41.165Z,6.00
2018-09-16T02:28:09.009Z,6.67
2018-09-16T02:30:36.804Z,6.30
2018-09-16T02:33:04.719Z,6.67
2018-09-16T02:35:32.662Z,7.57
2018-09-16T02:38:00.374Z,7.00
2018-09-16T02:40:28.402Z,6.23
2018-09-16T02:42:56.218Z,6.70
2018-09-16T02:45:24.096Z,8.10
2018-09-16T02:47:51.949Z,7.00
2018-09-16T02:50:19.724Z,6.90
2018-09-16T02:52:47.649Z,6.30
2018-09-16T02:55:15.444Z,6.70
2018-09-16T02:57:43.462Z,6.43
2018-09-16T03:00:11.308Z,7.20
2018-09-16T03:02:39.017Z,6.60
2018-09-16T03:05:06.877Z,6.57
2018-09-16T03:07:34.708Z,7.10
2018-09-16T03:10:02.594Z,6.87
2018-09-16T03:12:30.425Z,6.53
2018-09-16T03:14:58.208Z,6.77
2018-09-16T03:17:26.052Z,5.93
2018-09-16T03:19:53.941Z,7.30
2018-09-16T03:22:21.797Z,7.57
2018-09-16T03:24:49.643Z,7.83
2018-09-16T03:27:17.430Z,6.77
2018-09-16T03:29:45.281Z,6.60
2018-09-16T03:32:13.207Z,7.20
2018-09-16T03:34:41.006Z,6.73
2018-09-16T03:37:08.906Z,7.17
2018-09-16T03:39:36.776Z,7.60
2018-09-16T03:42:04.633Z,7.23
2018-09-16T03:44:32.482Z,7.60
2018-09-16T03:47:00.409Z,7.07
2018-09-16T03:49:28.357Z,7.47
2018-09-16T03:51:56.213Z,7.10
2018-09-16T03:54:24.058Z,7.90
2018-09-16T03:56:51.826Z,6.90
2018-09-16T03:59:19.694Z,7.40
2018-09-16T04:01:47.562Z,6.50
2018-09-16T04:04:15.467Z,7.70
2018-09-16T04:06:43.296Z,7.37
2018-09-16T04:09:11.642Z,7.20
2018-09-16T04:11:39.496Z,6.40
2018-09-16T04:14:07.325Z,6.83
2018-09-16T04:16:35.341Z,7.60
2018-09-16T04:19:03.137Z,6.93
2018-09-16T04:21:31.480Z,7.40
2018-09-16T04:23:59.306Z,7.33
2018-09-16T04:26:27.176Z,7.20
2018-09-16T04:28:55.023Z,6.87
2018-09-16T04:31:22.940Z,8.33
2018-09-16T04:33:50.772Z,7.10
2018-09-16T04:36:18.632Z,7.43
2018-09-16T04:38:46.509Z,7.10
2018-09-16T04:41:14.372Z,6.77
2018-09-16T04:43:42.226Z,6.73
2018-09-16T04:46:10.078Z,7.60
2018-09-16T04:48:37.969Z,7.17
2018-09-16T04:51:05.833Z,8.30
2018-09-16T04:53:33.689Z,7.63
2018-09-16T04:56:01.522Z,6.30
2018-09-16T04:58:29.356Z,6.40
2018-09-16T05:00:57.225Z,7.40
2018-09-16T05:03:25.752Z,7.00
2018-09-16T05:05:53.404Z,6.63
2018-09-16T05:08:21.032Z,7.60
2018-09-16T05:11:07.916Z,7.40
2018-09-16T05:13:35.531Z,7.80
2018-09-16T05:16:03.351Z,7.50
2018-09-16T05:18:31.236Z,7.50
2018-09-16T05:20:59.177Z,7.83
2018-09-16T05:23:27.653Z,7.70
2018-09-16T05:25:55.450Z,7.30
2018-09-16T05:28:23.305Z,6.67
2018-09-16T05:30:51.188Z,7.07
2018-09-16T05:33:19.029Z,8.43
2018-09-16T05:35:46.827Z,7.30
2018-09-16T05:38:14.713Z,8.40
2018-09-16T05:40:42.543Z,7.27
2018-09-16T05:43:10.419Z,7.67
2018-09-16T05:45:38.260Z,7.63
2018-09-16T05:48:06.132Z,7.37
2018-09-16T05:50:33.993Z,7.23
2018-09-16T05:53:02.088Z,7.90
2018-09-16T05:55:29.853Z,7.10
2018-09-16T05:57:57.621Z,7.30
2018-09-16T06:00:27.654Z,7.20
2018-09-16T06:02:56.008Z,7.37
2018-09-16T06:05:23.867Z,7.20
2018-09-16T06:07:51.648Z,6.73
2018-09-16T06:10:20.013Z,7.50
2018-09-16T06:12:47.892Z,7.17
2018-09-16T06:15:15.735Z,8.50
2018-09-16T06:17:43.564Z,7.63
2018-09-16T06:20:11.409Z,7.97
2018-09-16T06:22:39.268Z,7.33
2018-09-16T06:25:07.597Z,7.67
2018-09-16T06:27:35.533Z,8.33
2018-09-16T06:30:03.323Z,7.30
2018-09-16T06:32:30.914Z,8.00
2018-09-16T06:34:58.573Z,7.20
2018-09-16T06:37:26.183Z,7.50
2018-09-16T06:39:53.758Z,8.30
2018-09-16T06:42:21.329Z,8.33
2018-09-16T06:44:48.983Z,7.93
2018-09-16T06:47:16.647Z,7.10
2018-09-16T06:49:44.210Z,8.23
2018-09-16T06:52:11.793Z,8.53
2018-09-16T06:54:39.429Z,8.13
2018-09-16T06:57:07.032Z,9.03
2018-09-16T06:59:34.661Z,6.97
2018-09-16T07:02:02.237Z,7.87
2018-09-16T07:04:29.862Z,7.20
2018-09-16T07:06:57.453Z,7.43
2018-09-16T07:09:25.085Z,8.50
2018-09-16T07:11:52.661Z,8.37
2018-09-16T07:14:20.248Z,8.47
2018-09-16T07:16:47.838Z,8.10
2018-09-16T07:19:15.465Z,8.70
2018-09-16T07:22:14.250Z,8.93
2018-09-16T07:24:41.917Z,8.50
2018-09-16T07:27:09.570Z,8.73
2018-09-16T07:29:37.213Z,8.10
2018-09-16T07:32:04.955Z,9.10
2018-09-16T07:34:32.548Z,8.43
2018-09-16T07:37:00.152Z,8.80
2018-09-16T07:39:27.779Z,8.73
2018-09-16T07:41:55.387Z,8.13
2018-09-16T07:44:23.002Z,8.80
2018-09-16T07:46:50.609Z,8.40
2018-09-16T07:49:18.222Z,9.47
2018-09-16T07:51:45.826Z,9.40
2018-09-16T07:54:13.453Z,8.63
2018-09-16T07:56:41.091Z,8.57
2018-09-16T07:59:08.676Z,9.63
2018-09-16T08:01:36.292Z,9.07
2018-09-16T08:04:03.916Z,8.27
2018-09-16T08:06:31.560Z,9.67
2018-09-16T08:08:59.145Z,8.57
2018-09-16T08:11:27.013Z,9.17
2018-09-16T08:13:54.910Z,8.30
2018-09-16T08:16:22.752Z,9.43
2018-09-16T08:18:50.633Z,9.20
2018-09-16T08:21:18.492Z,8.47
2018-09-16T08:23:46.445Z,9.30
2018-09-16T08:26:14.322Z,9.20
2018-09-16T08:28:42.070Z,9.47
2018-09-16T08:31:09.891Z,8.97
2018-09-16T08:33:37.717Z,10.07
2018-09-16T08:36:05.708Z,10.50
2018-09-16T08:38:33.534Z,9.00
2018-09-16T08:41:01.301Z,7.90
2018-09-16T08:43:29.105Z,8.50
2018-09-16T08:45:56.939Z,7.50
2018-09-16T08:48:24.708Z,8.73
2018-09-16T08:50:52.480Z,8.17
2018-09-16T08:53:20.380Z,6.93
2018-09-16T08:55:48.234Z,6.63
2018-09-16T08:58:16.194Z,7.67
2018-09-16T09:00:43.937Z,6.37
2018-09-16T09:03:11.769Z,8.03
2018-09-16T09:05:39.585Z,6.60
2018-09-16T09:08:07.416Z,7.77
2018-09-16T09:10:35.315Z,7.37
2018-09-16T09:13:03.068Z,7.20
2018-09-16T09:15:30.837Z,6.40
2018-09-16T09:17:58.631Z,7.43
2018-09-16T09:20:26.494Z,7.60
2018-09-16T09:22:54.370Z,7.03
2018-09-16T09:25:22.195Z,7.50
2018-09-16T09:27:49.968Z,7.47
2018-09-16T09:30:17.839Z,7.27
2018-09-16T09:32:45.612Z,7.00
2018-09-16T09:35:13.418Z,7.77
2018-09-16T09:37:41.223Z,6.97
2018-09-16T09:40:09.232Z,7.27
2018-09-16T09:42:37.119Z,6.87
2018-09-16T09:45:04.974Z,7.40
2018-09-16T09:47:32.817Z,7.70
2018-09-16T09:50:00.677Z,7.20
2018-09-16T09:52:28.389Z,7.30
2018-09-16T09:54:56.207Z,7.87
2018-09-16T09:57:24.026Z,6.77
2018-09-16T09:59:51.836Z,7.67
2018-09-16T10:02:19.596Z,7.90
2018-09-16T10:04:47.450Z,6.90
2018-09-16T10:07:15.529Z,7.70
2018-09-16T10:09:43.299Z,7.03
2018-09-16T10:12:11.098Z,7.40
2018-09-16T10:14:38.952Z,7.00
2018-09-16T10:17:06.723Z,7.60
2018-09-16T10:19:34.594Z,7.27
2018-09-16T10:22:02.369Z,6.23
2018-09-16T10:24:30.268Z,6.67
2018-09-16T10:26:58.080Z,6.63
2018-09-16T10:29:25.925Z,6.87
2018-09-16T10:31:53.708Z,6.63
2018-09-16T10:34:21.485Z,6.90
2018-09-16T10:36:49.235Z,5.70
2018-09-16T10:39:17.028Z,6.90
2018-09-16T10:41:44.869Z,6.83
2018-09-16T10:44:12.673Z,5.53
2018-09-16T10:46:40.505Z,6.40
2018-09-16T10:49:08.290Z,6.30
2018-09-16T10:51:36.137Z,6.23
2018-09-16T10:54:04.016Z,6.13
2018-09-16T10:56:32.083Z,5.90
2018-09-16T10:58:59.860Z,6.40
2018-09-16T11:01:27.690Z,6.00
2018-09-16T11:03:55.467Z,6.07
2018-09-16T11:06:23.350Z,6.27
2018-09-16T11:08:51.288Z,6.10
2018-09-16T11:11:19.107Z,6.73
2018-09-16T11:13:46.993Z,5.90
2018-09-16T11:16:15.186Z,5.80
2018-09-16T11:18:43.013Z,6.43
2018-09-16T11:21:10.861Z,5.97
2018-09-16T11:23:38.717Z,5.37
2018-09-16T11:26:06.795Z,6.13
2018-09-16T11:28:34.584Z,6.03
2018-09-16T11:31:02.352Z,5.87
2018-09-16T11:33:30.243Z,5.67
2018-09-16T11:35:58.061Z,5.90
2018-09-16T11:38:25.846Z,4.90
2018-09-16T11:40:53.695Z,5.47
2018-09-16T11:43:21.451Z,5.07
2018-09-16T11:45:49.241Z,6.00
2018-09-16T11:48:17.101Z,5.90
2018-09-16T11:50:44.950Z,5.43
2018-09-16T11:53:12.710Z,5.50
2018-09-16T11:55:40.580Z,5.53
2018-09-16T11:58:08.359Z,5.27
2018-09-16T12:00:36.147Z,5.77
2018-09-16T12:03:04.161Z,5.17
2018-09-16T12:05:31.955Z,5.00
2018-09-16T12:07:59.809Z,5.80
2018-09-16T12:10:27.503Z,5.40
2018-09-16T12:12:55.369Z,5.43
2018-09-16T12:15:23.168Z,5.53
2018-09-16T12:17:50.981Z,5.17
2018-09-16T12:20:18.740Z,5.60
2018-09-16T12:22:46.685Z,5.13
2018-09-16T12:25:14.481Z,5.33
2018-09-16T12:27:42.380Z,5.93
2018-09-16T12:30:10.284Z,5.20
2018-09-16T12:32:38.094Z,5.83
2018-09-16T12:35:05.949Z,5.43
2018-09-16T12:37:33.727Z,5.37
2018-09-16T12:40:01.603Z,5.50
2018-09-16T12:42:29.428Z,5.13
2018-09-16T12:44:57.207Z,5.10
2018-09-16T12:47:25.005Z,5.97
2018-09-16T12:49:52.899Z,5.43
2018-09-16T12:52:20.737Z,5.40
2018-09-16T12:54:48.672Z,5.17
2018-09-16T12:57:16.452Z,5.70
2018-09-16T12:59:44.272Z,4.67
2018-09-16T13:02:12.096Z,5.13
2018-09-16T13:04:39.953Z,5.60
2018-09-16T13:07:07.842Z,4.63
2018-09-16T13:09:35.719Z,5.00
2018-09-16T13:12:03.552Z,4.97
2018-09-16T13:14:31.341Z,5.07
2018-09-16T13:16:59.197Z,5.53
2018-09-16T13:19:27.069Z,4.80
2018-09-16T13:21:54.915Z,4.83
2018-09-16T13:24:22.720Z,5.07
2018-09-16T13:26:50.982Z,5.20
2018-09-16T13:29:18.825Z,5.50
2018-09-16T13:31:46.583Z,5.80
2018-09-16T13:34:14.371Z,5.40
2018-09-16T13:36:42.244Z,5.77
2018-09-16T13:39:10.962Z,5.60
2018-09-16T13:41:38.776Z,5.73
2018-09-16T13:44:06.673Z,5.20
2018-09-16T13:46:34.449Z,4.93
2018-09-16T13:49:02.331Z,4.93
2018-09-16T13:51:30.133Z,5.30
2018-09-16T13:53:57.906Z,5.03
2018-09-16T13:56:25.833Z,6.37
2018-09-16T13:58:53.736Z,5.03
2018-09-16T14:01:21.482Z,5.33
2018-09-16T14:03:49.342Z,5.60
2018-09-16T14:06:17.069Z,4.93
2018-09-16T14:08:44.910Z,4.60
2018-09-16T14:11:12.782Z,5.33
2018-09-16T14:13:40.535Z,5.50
2018-09-16T14:16:08.303Z,5.70
2018-09-16T14:18:36.099Z,4.80
2018-09-16T14:21:04.040Z,4.90
2018-09-16T14:23:31.837Z,5.10
2018-09-16T14:25:59.704Z,5.30
2018-09-16T14:28:27.575Z,5.83
2018-09-16T14:30:55.409Z,5.70
2018-09-16T14:33:23.285Z,5.90
2018-09-16T14:35:51.141Z,5.20
2018-09-16T14:38:19.070Z,6.20
2018-09-16T14:40:46.890Z,5.40
2018-09-16T14:43:14.783Z,5.13
2018-09-16T14:45:42.623Z,5.00
2018-09-16T14:48:10.389Z,4.67
2018-09-16T14:50:38.360Z,5.70
2018-09-16T14:53:06.226Z,5.47
2018-09-16T14:55:34.075Z,5.30
2018-09-16T14:58:01.948Z,5.70
2018-09-16T15:00:29.833Z,5.70
2018-09-16T15:02:57.681Z,5.70
2018-09-16T15:05:25.580Z,5.20
2018-09-16T15:07:53.464Z,6.07
2018-09-16T15:10:21.293Z,5.40
2018-09-16T15:12:49.156Z,6.50
2018-09-16T15:15:16.936Z,5.87
2018-09-16T15:17:44.803Z,5.87
2018-09-16T15:20:12.661Z,5.10
2018-09-16T15:22:40.460Z,7.07
2018-09-16T15:25:08.312Z,7.07
2018-09-16T15:27:36.181Z,6.20
2018-09-16T15:30:04.124Z,6.57
2018-09-16T15:32:31.880Z,5.63
2018-09-16T15:34:59.649Z,6.20
2018-09-16T15:37:27.461Z,6.70
2018-09-16T15:39:55.307Z,5.17
2018-09-16T15:42:23.160Z,5.40
2018-09-16T15:44:50.855Z,6.90
2018-09-16T15:47:18.848Z,6.20
2018-09-16T15:49:46.655Z,6.00
2018-09-16T15:52:14.544Z,6.83
2018-09-16T15:54:42.399Z,5.60
2018-09-16T15:57:10.265Z,5.40
2018-09-16T15:59:38.125Z,5.70
2018-09-16T16:02:05.995Z,5.43
2018-09-16T16:04:33.617Z,6.40
2018-09-16T16:07:01.449Z,6.07
2018-09-16T16:09:29.060Z,5.30
2018-09-16T16:11:56.662Z,8.77
2018-09-16T16:14:24.286Z,8.10
2018-09-16T16:16:51.938Z,6.20
2018-09-16T16:19:19.527Z,6.33
2018-09-16T16:21:47.153Z,6.43
2018-09-16T16:24:14.738Z,6.00
2018-09-16T16:26:42.345Z,5.60
2018-09-16T16:29:09.972Z,6.00
2018-09-16T16:31:37.603Z,6.50
2018-09-16T16:34:05.297Z,5.73
2018-09-16T16:36:32.904Z,6.03
2018-09-16T16:39:00.511Z,5.70
2018-09-16T16:41:28.125Z,5.70
2018-09-16T16:43:55.705Z,5.40
2018-09-16T16:46:23.321Z,5.17
2018-09-16T16:48:50.929Z,5.43
2018-09-16T16:51:18.939Z,5.77
2018-09-16T16:53:46.627Z,6.20
2018-09-16T16:56:14.225Z,6.27
2018-09-16T16:58:41.897Z,6.00
2018-09-16T17:01:09.753Z,6.17
2018-09-16T17:03:37.569Z,6.20
2018-09-16T17:06:05.471Z,6.40
2018-09-16T17:08:33.326Z,6.07
2018-09-16T17:11:01.163Z,6.80
2018-09-16T17:13:29.448Z,6.87
2018-09-16T17:15:57.244Z,6.37
2018-09-16T17:18:24.845Z,6.90
2018-09-16T17:20:52.484Z,6.40
2018-09-16T17:23:20.150Z,5.90
2018-09-16T17:25:47.802Z,6.50
2018-09-16T17:28:15.678Z,6.50
2018-09-16T17:30:43.513Z,6.37
2018-09-16T17:33:11.404Z,5.97
2018-09-16T17:35:39.036Z,6.63
2018-09-16T17:38:06.670Z,6.90
2018-09-16T17:40:34.329Z,6.33
2018-09-16T17:43:02.822Z,6.37
2018-09-16T17:45:30.473Z,6.03
2018-09-16T17:47:58.111Z,6.87
2018-09-16T17:50:25.791Z,7.33
2018-09-16T17:52:53.430Z,6.07
2018-09-16T17:55:21.152Z,6.50
2018-09-16T17:57:48.821Z,6.00
2018-09-16T18:00:16.527Z,7.30
2018-09-16T18:02:44.209Z,6.30
2018-09-16T18:05:11.850Z,6.20
2018-09-16T18:07:39.486Z,6.70
2018-09-16T18:10:07.153Z,5.63
2018-09-16T18:12:34.821Z,5.87
2018-09-16T18:15:02.495Z,6.17
2018-09-16T18:17:30.415Z,6.37
2018-09-16T18:19:58.227Z,6.03
2018-09-16T18:22:26.025Z,7.10
2018-09-16T18:24:53.860Z,6.90
2018-09-16T18:27:21.811Z,6.50
2018-09-16T18:29:49.694Z,6.97
2018-09-16T18:32:17.650Z,6.33
2018-09-16T18:34:45.521Z,6.80
2018-09-16T18:37:13.326Z,6.60
2018-09-16T18:39:41.359Z,6.53
2018-09-16T18:42:09.143Z,6.50
2018-09-16T18:44:37.094Z,6.40
2018-09-16T18:47:04.962Z,7.00
2018-09-16T18:49:33.060Z,6.83
2018-09-16T18:52:00.898Z,6.80
2018-09-16T18:54:28.790Z,6.90
2018-09-16T18:56:57.191Z,7.63
2018-09-16T18:59:25.756Z,7.60
2018-09-16T19:01:54.000Z,8.10
2018-09-16T19:04:21.889Z,7.67
2018-09-16T19:06:49.839Z,7.90
2018-09-16T19:09:17.840Z,8.00
2018-09-16T19:11:46.280Z,7.20
2018-09-16T19:14:14.163Z,7.60
2018-09-16T19:16:42.026Z,7.40
2018-09-16T19:19:09.919Z,8.27
2018-09-16T19:21:37.759Z,8.60
2018-09-16T19:24:05.956Z,7.37
2018-09-16T19:26:33.895Z,7.13
2018-09-16T19:29:01.853Z,7.77
2018-09-16T19:31:29.827Z,7.43
2018-09-16T19:33:57.762Z,7.10
2018-09-16T19:36:25.673Z,7.50
2018-09-16T19:38:53.670Z,7.77
2018-09-16T19:41:21.416Z,6.80
2018-09-16T19:43:49.217Z,7.70
2018-09-16T19:46:17.486Z,7.30
2018-09-16T19:48:45.472Z,7.40
2018-09-16T19:51:13.295Z,6.90
2018-09-16T19:53:41.223Z,8.03
2018-09-16T19:56:09.125Z,7.63
2018-09-16T19:58:36.986Z,7.53
2018-09-16T20:01:11.299Z,6.77
2018-09-16T20:03:39.716Z,7.10
2018-09-16T20:06:07.850Z,7.33
2018-09-16T20:08:35.711Z,7.27
2018-09-16T20:11:03.574Z,6.93
2018-09-16T20:13:32.600Z,7.70
2018-09-16T20:16:00.486Z,7.03
2018-09-16T20:18:28.446Z,7.10
2018-09-16T20:20:56.489Z,6.90
2018-09-16T20:23:24.366Z,7.70
2018-09-16T20:25:52.252Z,7.20
2018-09-16T20:28:20.050Z,6.73
2018-09-16T20:30:48.507Z,7.13
2018-09-16T20:33:16.385Z,7.47
2018-09-16T20:35:44.334Z,7.23
2018-09-16T20:38:12.201Z,7.10
2018-09-16T20:40:40.065Z,7.60
2018-09-16T20:43:07.904Z,7.03
2018-09-16T20:45:35.796Z,8.00
2018-09-16T20:48:03.793Z,7.97
2018-09-16T20:50:31.723Z,7.30
2018-09-16T20:52:59.573Z,7.60
2018-09-16T20:55:27.304Z,7.10
2018-09-16T20:57:55.110Z,7.93
2018-09-16T21:00:22.971Z,7.70
2018-09-16T21:02:50.757Z,7.00
2018-09-16T21:05:18.631Z,7.40
2018-09-16T21:07:46.513Z,6.80
2018-09-16T21:10:14.493Z,7.47
2018-09-16T21:12:42.433Z,7.40
2018-09-16T21:15:10.279Z,6.70
2018-09-16T21:17:38.183Z,7.13
2018-09-16T21:20:06.010Z,7.00
2018-09-16T21:22:33.824Z,7.20
2018-09-16T21:25:01.663Z,7.13
2018-09-16T21:27:29.546Z,7.10
2018-09-16T21:29:57.413Z,6.47
2018-09-16T21:32:25.262Z,6.57
2018-09-16T21:34:53.128Z,7.13
2018-09-16T21:37:21.001Z,7.20
2018-09-16T21:39:48.897Z,7.67
2018-09-16T21:42:16.735Z,7.50
2018-09-16T21:44:44.607Z,7.50
2018-09-16T21:47:12.531Z,7.77
2018-09-16T21:49:40.501Z,8.60
2018-09-16T21:52:08.405Z,8.00
2018-09-16T21:54:36.190Z,8.07
2018-09-16T21:57:04.060Z,8.17
2018-09-16T21:59:31.901Z,7.30
2018-09-16T22:01:59.766Z,7.20
2018-09-16T22:04:27.645Z,7.77
2018-09-16T22:06:55.543Z,7.60
2018-09-16T22:09:24.785Z,7.50
2018-09-16T22:11:52.918Z,8.60
2018-09-16T22:14:20.729Z,8.17
2018-09-16T22:16:48.568Z,8.07
2018-09-16T22:19:16.350Z,7.63
2018-09-16T22:21:44.152Z,7.67
2018-09-16T22:24:11.986Z,7.67
2018-09-16T22:26:39.778Z,8.40
2018-09-16T22:29:07.628Z,7.70
2018-09-16T22:31:35.410Z,7.90
2018-09-16T22:34:03.269Z,8.17
2018-09-16T22:36:31.128Z,7.80
2018-09-16T22:38:59.001Z,8.37
2018-09-16T22:41:26.864Z,7.50
2018-09-16T22:43:54.847Z,8.70
2018-09-16T22:46:22.699Z,8.53
2018-09-16T22:48:50.606Z,8.07
2018-09-16T22:51:18.449Z,8.03
2018-09-16T22:53:46.308Z,8.30
2018-09-16T22:56:14.155Z,7.83
2018-09-16T22:58:41.942Z,8.10
2018-09-16T23:01:10.068Z,8.77
2018-09-16T23:03:37.965Z,8.00
2018-09-16T23:06:06.105Z,7.80
2018-09-16T23:08:33.933Z,8.43
2018-09-16T23:11:01.800Z,8.47
2018-09-16T23:13:29.665Z,9.07
2018-09-16T23:15:57.568Z,7.67
2018-09-16T23:18:25.499Z,8.07
2018-09-16T23:20:53.461Z,8.70
2018-09-16T23:23:21.387Z,8.73
2018-09-16T23:25:49.417Z,7.53
2018-09-16T23:28:17.284Z,7.10
2018-09-16T23:30:45.167Z,7.63
2018-09-16T23:33:13.034Z,9.17
2018-09-16T23:35:40.900Z,7.40
2018-09-16T23:38:08.731Z,8.27
2018-09-16T23:40:36.633Z,8.90
2018-09-16T23:43:04.806Z,7.53
2018-09-16T23:45:32.766Z,8.43
2018-09-16T23:48:00.684Z,8.53
2018-09-16T23:50:28.601Z,7.50
2018-09-16T23:52:56.455Z,8.30
2018-09-16T23:55:24.335Z,8.00
2018-09-16T23:57:52.208Z,8.53
